sensor_id;sensor_type;location;lat;lon;timestamp;P1;durP1;ratioP1;P2;durP2;ratioP2
59273;SDS011;45044;41.572;24.730;2023-02-01T00:01:11;22.47;;;13.83;;
59273;SDS011;45044;41.572;24.730;2023-02-01T00:03:38;18.23;;;10.73;;
59273;SDS011;45044;41.572;24.730;2023-02-01T00:06:05;37.40;;;17.53;;
59273;SDS011;45044;41.572;24.730;2023-02-01T00:08:32;26.37;;;13.77;;
59273;SDS011;45044;41.572;24.730;2023-02-01T00:11:07;23.27;;;13.00;;
59273;SDS011;45044;41.572;24.730;2023-02-01T00:13:37;20.73;;;12.63;;
59273;SDS011;45044;41.572;24.730;2023-02-01T00:16:16;25.93;;;16.33;;
59273;SDS011;45044;41.572;24.730;2023-02-01T00:18:46;25.97;;;13.80;;
59273;SDS011;45044;41.572;24.730;2023-02-01T00:21:15;21.07;;;14.03;;
59273;SDS011;45044;41.572;24.730;2023-02-01T00:23:44;17.80;;;12.13;;
59273;SDS011;45044;41.572;24.730;2023-02-01T00:26:16;17.70;;;9.40;;
59273;SDS011;45044;41.572;24.730;2023-02-01T00:28:47;10.10;;;5.37;;
59273;SDS011;45044;41.572;24.730;2023-02-01T00:31:13;8.80;;;4.10;;
59273;SDS011;45044;41.572;24.730;2023-02-01T00:33:41;12.73;;;7.37;;
59273;SDS011;45044;41.572;24.730;2023-02-01T00:36:08;9.53;;;4.83;;
59273;SDS011;45044;41.572;24.730;2023-02-01T00:38:38;13.20;;;7.07;;
59273;SDS011;45044;41.572;24.730;2023-02-01T00:41:15;13.17;;;8.13;;
59273;SDS011;45044;41.572;24.730;2023-02-01T00:43:44;5.97;;;3.40;;
59273;SDS011;45044;41.572;24.730;2023-02-01T00:46:12;8.70;;;4.40;;
59273;SDS011;45044;41.572;24.730;2023-02-01T00:48:41;13.73;;;7.67;;
59273;SDS011;45044;41.572;24.730;2023-02-01T00:51:10;18.03;;;10.93;;
59273;SDS011;45044;41.572;24.730;2023-02-01T00:53:38;12.43;;;5.93;;
59273;SDS011;45044;41.572;24.730;2023-02-01T00:56:05;9.13;;;3.63;;
59273;SDS011;45044;41.572;24.730;2023-02-01T00:58:33;8.80;;;4.53;;
59273;SDS011;45044;41.572;24.730;2023-02-01T01:01:07;4.17;;;2.33;;
59273;SDS011;45044;41.572;24.730;2023-02-01T01:03:42;4.43;;;2.17;;
59273;SDS011;45044;41.572;24.730;2023-02-01T01:06:15;11.00;;;4.33;;
59273;SDS011;45044;41.572;24.730;2023-02-01T01:08:43;7.10;;;2.63;;
59273;SDS011;45044;41.572;24.730;2023-02-01T01:13:39;12.13;;;5.63;;
59273;SDS011;45044;41.572;24.730;2023-02-01T01:16:07;3.50;;;1.70;;
59273;SDS011;45044;41.572;24.730;2023-02-01T01:18:36;15.87;;;6.27;;
59273;SDS011;45044;41.572;24.730;2023-02-01T01:21:07;5.23;;;2.37;;
59273;SDS011;45044;41.572;24.730;2023-02-01T01:23:36;6.43;;;2.63;;
59273;SDS011;45044;41.572;24.730;2023-02-01T01:26:10;10.07;;;4.00;;
59273;SDS011;45044;41.572;24.730;2023-02-01T01:28:40;15.63;;;4.90;;
59273;SDS011;45044;41.572;24.730;2023-02-01T01:31:07;14.63;;;5.03;;
59273;SDS011;45044;41.572;24.730;2023-02-01T01:33:36;7.73;;;3.17;;
59273;SDS011;45044;41.572;24.730;2023-02-01T01:36:06;13.10;;;7.27;;
59273;SDS011;45044;41.572;24.730;2023-02-01T01:38:40;15.27;;;5.60;;
59273;SDS011;45044;41.572;24.730;2023-02-01T01:41:09;8.17;;;2.97;;
59273;SDS011;45044;41.572;24.730;2023-02-01T01:43:53;19.05;;;6.32;;
59273;SDS011;45044;41.572;24.730;2023-02-01T01:46:30;7.73;;;2.70;;
59273;SDS011;45044;41.572;24.730;2023-02-01T01:51:40;4.57;;;2.07;;
59273;SDS011;45044;41.572;24.730;2023-02-01T01:54:21;9.80;;;3.83;;
59273;SDS011;45044;41.572;24.730;2023-02-01T01:56:55;10.43;;;4.70;;
59273;SDS011;45044;41.572;24.730;2023-02-01T01:59:26;8.67;;;2.63;;
59273;SDS011;45044;41.572;24.730;2023-02-01T02:01:54;6.83;;;2.60;;
59273;SDS011;45044;41.572;24.730;2023-02-01T02:04:22;18.27;;;7.00;;
59273;SDS011;45044;41.572;24.730;2023-02-01T02:07:11;6.70;;;2.40;;
59273;SDS011;45044;41.572;24.730;2023-02-01T02:09:40;8.13;;;3.37;;
59273;SDS011;45044;41.572;24.730;2023-02-01T02:12:25;6.15;;;2.65;;
59273;SDS011;45044;41.572;24.730;2023-02-01T02:14:52;9.90;;;3.77;;
59273;SDS011;45044;41.572;24.730;2023-02-01T02:25:37;8.73;;;3.17;;
59273;SDS011;45044;41.572;24.730;2023-02-01T02:36:58;5.73;;;1.80;;
59273;SDS011;45044;41.572;24.730;2023-02-01T02:42:17;2.83;;;1.37;;
59273;SDS011;45044;41.572;24.730;2023-02-01T02:54:10;7.43;;;3.37;;
59273;SDS011;45044;41.572;24.730;2023-02-01T02:57:00;6.80;;;3.87;;
59273;SDS011;45044;41.572;24.730;2023-02-01T02:59:49;4.07;;;1.87;;
59273;SDS011;45044;41.572;24.730;2023-02-01T03:02:36;9.17;;;4.43;;
59273;SDS011;45044;41.572;24.730;2023-02-01T03:05:23;14.60;;;8.67;;
59273;SDS011;45044;41.572;24.730;2023-02-01T03:07:54;3.67;;;2.10;;
59273;SDS011;45044;41.572;24.730;2023-02-01T03:13:08;8.20;;;4.87;;
59273;SDS011;45044;41.572;24.730;2023-02-01T03:15:41;7.63;;;4.30;;
59273;SDS011;45044;41.572;24.730;2023-02-01T03:18:19;8.20;;;4.07;;
59273;SDS011;45044;41.572;24.730;2023-02-01T03:21:09;10.00;;;5.73;;
59273;SDS011;45044;41.572;24.730;2023-02-01T03:23:39;11.50;;;5.30;;
59273;SDS011;45044;41.572;24.730;2023-02-01T03:26:09;7.60;;;4.77;;
59273;SDS011;45044;41.572;24.730;2023-02-01T03:29:05;24.53;;;13.07;;
59273;SDS011;45044;41.572;24.730;2023-02-01T03:31:35;10.17;;;6.13;;
59273;SDS011;45044;41.572;24.730;2023-02-01T03:34:02;17.20;;;8.30;;
59273;SDS011;45044;41.572;24.730;2023-02-01T03:36:35;13.90;;;7.83;;
59273;SDS011;45044;41.572;24.730;2023-02-01T03:39:20;16.83;;;9.40;;
59273;SDS011;45044;41.572;24.730;2023-02-01T03:41:55;9.00;;;4.10;;
59273;SDS011;45044;41.572;24.730;2023-02-01T03:46:54;4.07;;;2.03;;
59273;SDS011;45044;41.572;24.730;2023-02-01T03:49:26;7.10;;;3.37;;
59273;SDS011;45044;41.572;24.730;2023-02-01T03:51:58;9.57;;;5.50;;
59273;SDS011;45044;41.572;24.730;2023-02-01T03:54:27;5.50;;;2.70;;
59273;SDS011;45044;41.572;24.730;2023-02-01T03:56:57;4.23;;;2.03;;
59273;SDS011;45044;41.572;24.730;2023-02-01T03:59:27;9.07;;;4.77;;
59273;SDS011;45044;41.572;24.730;2023-02-01T04:01:54;13.13;;;6.47;;
59273;SDS011;45044;41.572;24.730;2023-02-01T04:04:21;13.40;;;6.37;;
59273;SDS011;45044;41.572;24.730;2023-02-01T04:06:49;15.87;;;7.87;;
59273;SDS011;45044;41.572;24.730;2023-02-01T04:09:17;17.40;;;9.20;;
59273;SDS011;45044;41.572;24.730;2023-02-01T04:11:43;15.33;;;9.13;;
59273;SDS011;45044;41.572;24.730;2023-02-01T04:14:10;14.73;;;8.40;;
59273;SDS011;45044;41.572;24.730;2023-02-01T04:16:37;17.07;;;9.53;;
59273;SDS011;45044;41.572;24.730;2023-02-01T04:19:04;17.70;;;9.13;;
59273;SDS011;45044;41.572;24.730;2023-02-01T04:21:31;19.80;;;13.33;;
59273;SDS011;45044;41.572;24.730;2023-02-01T04:23:57;17.73;;;12.40;;
59273;SDS011;45044;41.572;24.730;2023-02-01T04:26:24;15.90;;;11.67;;
59273;SDS011;45044;41.572;24.730;2023-02-01T04:28:52;14.07;;;10.63;;
59273;SDS011;45044;41.572;24.730;2023-02-01T04:31:19;15.97;;;10.40;;
59273;SDS011;45044;41.572;24.730;2023-02-01T04:33:52;10.93;;;6.63;;
59273;SDS011;45044;41.572;24.730;2023-02-01T04:36:21;8.27;;;4.47;;
59273;SDS011;45044;41.572;24.730;2023-02-01T04:38:48;13.47;;;7.67;;
59273;SDS011;45044;41.572;24.730;2023-02-01T04:41:17;15.40;;;9.37;;
59273;SDS011;45044;41.572;24.730;2023-02-01T04:43:46;21.17;;;13.47;;
59273;SDS011;45044;41.572;24.730;2023-02-01T04:46:13;18.77;;;12.40;;
59273;SDS011;45044;41.572;24.730;2023-02-01T04:48:41;13.00;;;8.00;;
59273;SDS011;45044;41.572;24.730;2023-02-01T04:51:08;13.60;;;8.63;;
59273;SDS011;45044;41.572;24.730;2023-02-01T04:53:36;10.80;;;6.43;;
59273;SDS011;45044;41.572;24.730;2023-02-01T04:56:03;8.20;;;4.40;;
59273;SDS011;45044;41.572;24.730;2023-02-01T04:58:30;35.27;;;18.30;;
59273;SDS011;45044;41.572;24.730;2023-02-01T05:00:57;20.17;;;12.90;;
59273;SDS011;45044;41.572;24.730;2023-02-01T05:03:24;14.90;;;8.27;;
59273;SDS011;45044;41.572;24.730;2023-02-01T05:05:51;11.67;;;7.17;;
59273;SDS011;45044;41.572;24.730;2023-02-01T05:08:19;10.00;;;5.10;;
59273;SDS011;45044;41.572;24.730;2023-02-01T05:10:48;20.63;;;13.03;;
59273;SDS011;45044;41.572;24.730;2023-02-01T05:13:15;18.97;;;13.13;;
59273;SDS011;45044;41.572;24.730;2023-02-01T05:16:01;18.10;;;12.90;;
59273;SDS011;45044;41.572;24.730;2023-02-01T05:18:28;14.63;;;8.43;;
59273;SDS011;45044;41.572;24.730;2023-02-01T05:20:54;19.50;;;11.47;;
59273;SDS011;45044;41.572;24.730;2023-02-01T05:23:21;17.13;;;9.77;;
59273;SDS011;45044;41.572;24.730;2023-02-01T05:25:48;21.03;;;10.93;;
59273;SDS011;45044;41.572;24.730;2023-02-01T05:28:15;15.63;;;11.53;;
59273;SDS011;45044;41.572;24.730;2023-02-01T05:30:42;24.40;;;13.73;;
59273;SDS011;45044;41.572;24.730;2023-02-01T05:33:08;37.83;;;22.33;;
59273;SDS011;45044;41.572;24.730;2023-02-01T05:35:35;80.63;;;38.27;;
59273;SDS011;45044;41.572;24.730;2023-02-01T05:38:02;49.27;;;31.10;;
59273;SDS011;45044;41.572;24.730;2023-02-01T05:40:29;85.77;;;45.67;;
59273;SDS011;45044;41.572;24.730;2023-02-01T05:42:55;83.43;;;52.13;;
59273;SDS011;45044;41.572;24.730;2023-02-01T05:45:22;45.47;;;27.87;;
59273;SDS011;45044;41.572;24.730;2023-02-01T05:47:49;24.60;;;15.37;;
59273;SDS011;45044;41.572;24.730;2023-02-01T05:50:16;31.87;;;19.63;;
59273;SDS011;45044;41.572;24.730;2023-02-01T05:52:43;57.83;;;31.80;;
59273;SDS011;45044;41.572;24.730;2023-02-01T05:55:10;38.70;;;26.07;;
59273;SDS011;45044;41.572;24.730;2023-02-01T05:57:36;33.37;;;21.53;;
59273;SDS011;45044;41.572;24.730;2023-02-01T06:00:03;74.90;;;46.43;;
59273;SDS011;45044;41.572;24.730;2023-02-01T06:02:30;81.23;;;45.90;;
59273;SDS011;45044;41.572;24.730;2023-02-01T06:04:57;97.60;;;51.23;;
59273;SDS011;45044;41.572;24.730;2023-02-01T06:07:24;91.47;;;52.57;;
59273;SDS011;45044;41.572;24.730;2023-02-01T06:09:54;105.17;;;55.07;;
59273;SDS011;45044;41.572;24.730;2023-02-01T06:12:21;112.60;;;61.00;;
59273;SDS011;45044;41.572;24.730;2023-02-01T06:14:48;119.47;;;58.40;;
59273;SDS011;45044;41.572;24.730;2023-02-01T06:17:14;134.20;;;64.97;;
59273;SDS011;45044;41.572;24.730;2023-02-01T06:19:41;43.20;;;23.90;;
59273;SDS011;45044;41.572;24.730;2023-02-01T06:22:10;88.90;;;45.67;;
59273;SDS011;45044;41.572;24.730;2023-02-01T06:24:37;117.03;;;62.73;;
59273;SDS011;45044;41.572;24.730;2023-02-01T06:27:03;94.60;;;51.87;;
59273;SDS011;45044;41.572;24.730;2023-02-01T06:29:30;100.10;;;53.50;;
59273;SDS011;45044;41.572;24.730;2023-02-01T06:31:57;93.00;;;50.73;;
59273;SDS011;45044;41.572;24.730;2023-02-01T06:34:24;85.50;;;45.37;;
59273;SDS011;45044;41.572;24.730;2023-02-01T06:36:51;64.37;;;38.07;;
59273;SDS011;45044;41.572;24.730;2023-02-01T06:39:17;51.23;;;33.53;;
59273;SDS011;45044;41.572;24.730;2023-02-01T06:41:48;60.80;;;37.83;;
59273;SDS011;45044;41.572;24.730;2023-02-01T06:44:15;47.13;;;28.73;;
59273;SDS011;45044;41.572;24.730;2023-02-01T06:46:42;34.40;;;21.93;;
59273;SDS011;45044;41.572;24.730;2023-02-01T06:49:09;53.70;;;31.30;;
59273;SDS011;45044;41.572;24.730;2023-02-01T06:51:36;72.70;;;39.77;;
59273;SDS011;45044;41.572;24.730;2023-02-01T06:54:03;57.67;;;36.47;;
59273;SDS011;45044;41.572;24.730;2023-02-01T06:56:30;50.00;;;30.77;;
59273;SDS011;45044;41.572;24.730;2023-02-01T06:58:57;44.20;;;26.57;;
59273;SDS011;45044;41.572;24.730;2023-02-01T07:01:24;46.60;;;28.40;;
59273;SDS011;45044;41.572;24.730;2023-02-01T07:03:52;60.93;;;39.10;;
59273;SDS011;45044;41.572;24.730;2023-02-01T07:06:19;51.03;;;29.57;;
59273;SDS011;45044;41.572;24.730;2023-02-01T07:08:46;44.77;;;27.13;;
59273;SDS011;45044;41.572;24.730;2023-02-01T07:11:14;31.37;;;19.97;;
59273;SDS011;45044;41.572;24.730;2023-02-01T07:13:41;27.50;;;17.07;;
59273;SDS011;45044;41.572;24.730;2023-02-01T07:16:10;38.47;;;24.70;;
59273;SDS011;45044;41.572;24.730;2023-02-01T07:18:38;32.07;;;20.93;;
59273;SDS011;45044;41.572;24.730;2023-02-01T07:21:05;29.50;;;19.77;;
59273;SDS011;45044;41.572;24.730;2023-02-01T07:23:32;29.97;;;18.47;;
59273;SDS011;45044;41.572;24.730;2023-02-01T07:26:00;24.50;;;16.93;;
59273;SDS011;45044;41.572;24.730;2023-02-01T07:28:30;24.87;;;15.10;;
59273;SDS011;45044;41.572;24.730;2023-02-01T07:31:02;18.10;;;12.10;;
59273;SDS011;45044;41.572;24.730;2023-02-01T07:33:30;19.40;;;13.30;;
59273;SDS011;45044;41.572;24.730;2023-02-01T07:35:57;34.87;;;22.93;;
59273;SDS011;45044;41.572;24.730;2023-02-01T07:38:23;27.80;;;18.17;;
59273;SDS011;45044;41.572;24.730;2023-02-01T07:40:50;28.00;;;19.70;;
59273;SDS011;45044;41.572;24.730;2023-02-01T07:43:17;42.43;;;28.03;;
59273;SDS011;45044;41.572;24.730;2023-02-01T07:45:49;13.67;;;8.33;;
59273;SDS011;45044;41.572;24.730;2023-02-01T07:48:17;19.40;;;12.00;;
59273;SDS011;45044;41.572;24.730;2023-02-01T07:50:44;14.23;;;8.20;;
59273;SDS011;45044;41.572;24.730;2023-02-01T07:53:11;9.33;;;5.07;;
59273;SDS011;45044;41.572;24.730;2023-02-01T07:55:38;9.87;;;5.87;;
59273;SDS011;45044;41.572;24.730;2023-02-01T07:58:06;10.93;;;6.20;;
59273;SDS011;45044;41.572;24.730;2023-02-01T08:00:33;12.10;;;7.07;;
59273;SDS011;45044;41.572;24.730;2023-02-01T08:03:18;16.97;;;10.70;;
59273;SDS011;45044;41.572;24.730;2023-02-01T08:05:47;13.93;;;8.67;;
59273;SDS011;45044;41.572;24.730;2023-02-01T08:08:14;23.93;;;14.83;;
59273;SDS011;45044;41.572;24.730;2023-02-01T08:10:41;12.57;;;8.97;;
59273;SDS011;45044;41.572;24.730;2023-02-01T08:13:07;18.60;;;14.00;;
59273;SDS011;45044;41.572;24.730;2023-02-01T08:15:34;42.57;;;32.77;;
59273;SDS011;45044;41.572;24.730;2023-02-01T08:18:01;13.50;;;8.27;;
59273;SDS011;45044;41.572;24.730;2023-02-01T08:20:29;15.60;;;8.37;;
59273;SDS011;45044;41.572;24.730;2023-02-01T08:22:56;27.70;;;22.43;;
59273;SDS011;45044;41.572;24.730;2023-02-01T08:25:23;54.03;;;33.37;;
59273;SDS011;45044;41.572;24.730;2023-02-01T08:27:50;22.40;;;15.43;;
59273;SDS011;45044;41.572;24.730;2023-02-01T08:30:18;20.50;;;12.07;;
59273;SDS011;45044;41.572;24.730;2023-02-01T08:32:45;63.50;;;31.43;;
59273;SDS011;45044;41.572;24.730;2023-02-01T08:35:11;106.80;;;76.37;;
59273;SDS011;45044;41.572;24.730;2023-02-01T08:37:38;48.07;;;25.73;;
59273;SDS011;45044;41.572;24.730;2023-02-01T08:40:06;14.30;;;9.80;;
59273;SDS011;45044;41.572;24.730;2023-02-01T08:42:33;8.20;;;4.47;;
59273;SDS011;45044;41.572;24.730;2023-02-01T08:45:18;18.48;;;10.00;;
59273;SDS011;45044;41.572;24.730;2023-02-01T08:47:48;13.33;;;6.93;;
59273;SDS011;45044;41.572;24.730;2023-02-01T08:50:15;9.90;;;4.93;;
59273;SDS011;45044;41.572;24.730;2023-02-01T08:52:42;27.07;;;12.93;;
59273;SDS011;45044;41.572;24.730;2023-02-01T08:55:10;23.77;;;15.20;;
59273;SDS011;45044;41.572;24.730;2023-02-01T08:57:37;30.90;;;18.70;;
59273;SDS011;45044;41.572;24.730;2023-02-01T09:00:05;32.60;;;15.00;;
59273;SDS011;45044;41.572;24.730;2023-02-01T09:02:34;13.63;;;7.70;;
59273;SDS011;45044;41.572;24.730;2023-02-01T09:05:01;21.47;;;13.10;;
59273;SDS011;45044;41.572;24.730;2023-02-01T09:07:28;14.77;;;9.13;;
59273;SDS011;45044;41.572;24.730;2023-02-01T09:09:55;15.17;;;9.93;;
59273;SDS011;45044;41.572;24.730;2023-02-01T09:12:23;17.50;;;11.07;;
59273;SDS011;45044;41.572;24.730;2023-02-01T09:14:49;31.13;;;19.50;;
59273;SDS011;45044;41.572;24.730;2023-02-01T09:17:16;47.77;;;26.03;;
59273;SDS011;45044;41.572;24.730;2023-02-01T09:19:43;42.57;;;20.90;;
59273;SDS011;45044;41.572;24.730;2023-02-01T09:22:10;12.43;;;8.57;;
59273;SDS011;45044;41.572;24.730;2023-02-01T09:24:36;13.20;;;8.57;;
59273;SDS011;45044;41.572;24.730;2023-02-01T09:27:03;10.27;;;5.33;;
59273;SDS011;45044;41.572;24.730;2023-02-01T09:29:30;16.80;;;10.97;;
59273;SDS011;45044;41.572;24.730;2023-02-01T09:31:57;8.23;;;5.10;;
59273;SDS011;45044;41.572;24.730;2023-02-01T09:34:29;14.50;;;6.30;;
59273;SDS011;45044;41.572;24.730;2023-02-01T09:36:56;14.03;;;8.13;;
59273;SDS011;45044;41.572;24.730;2023-02-01T09:39:24;6.47;;;3.93;;
59273;SDS011;45044;41.572;24.730;2023-02-01T09:47:26;14.93;;;7.30;;
59273;SDS011;45044;41.572;24.730;2023-02-01T09:52:43;14.20;;;9.97;;
59273;SDS011;45044;41.572;24.730;2023-02-01T09:55:18;9.10;;;5.10;;
59273;SDS011;45044;41.572;24.730;2023-02-01T09:57:57;3.67;;;1.77;;
59273;SDS011;45044;41.572;24.730;2023-02-01T10:00:30;55.70;;;26.37;;
59273;SDS011;45044;41.572;24.730;2023-02-01T10:03:01;12.47;;;7.43;;
59273;SDS011;45044;41.572;24.730;2023-02-01T10:11:00;16.63;;;9.77;;
59273;SDS011;45044;41.572;24.730;2023-02-01T10:19:31;12.10;;;6.67;;
59273;SDS011;45044;41.572;24.730;2023-02-01T10:22:09;12.90;;;7.83;;
59273;SDS011;45044;41.572;24.730;2023-02-01T10:24:47;21.67;;;10.27;;
59273;SDS011;45044;41.572;24.730;2023-02-01T10:27:25;12.97;;;7.70;;
59273;SDS011;45044;41.572;24.730;2023-02-01T10:30:05;20.43;;;11.30;;
59273;SDS011;45044;41.572;24.730;2023-02-01T10:32:42;17.97;;;11.17;;
59273;SDS011;45044;41.572;24.730;2023-02-01T10:37:36;12.33;;;6.00;;
59273;SDS011;45044;41.572;24.730;2023-02-01T10:40:37;59.00;;;34.43;;
59273;SDS011;45044;41.572;24.730;2023-02-01T10:42:57;13.80;;;8.27;;
59273;SDS011;45044;41.572;24.730;2023-02-01T10:45:28;13.00;;;7.17;;
59273;SDS011;45044;41.572;24.730;2023-02-01T10:47:57;5.67;;;3.13;;
59273;SDS011;45044;41.572;24.730;2023-02-01T10:53:20;10.13;;;6.43;;
59273;SDS011;45044;41.572;24.730;2023-02-01T10:55:53;13.40;;;6.67;;
59273;SDS011;45044;41.572;24.730;2023-02-01T11:00:54;31.03;;;16.10;;
59273;SDS011;45044;41.572;24.730;2023-02-01T11:05:57;4.67;;;1.70;;
59273;SDS011;45044;41.572;24.730;2023-02-01T11:08:24;8.67;;;5.90;;
59273;SDS011;45044;41.572;24.730;2023-02-01T11:11:01;14.50;;;7.23;;
59273;SDS011;45044;41.572;24.730;2023-02-01T11:13:32;19.27;;;9.90;;
59273;SDS011;45044;41.572;24.730;2023-02-01T11:16:03;17.70;;;10.07;;
59273;SDS011;45044;41.572;24.730;2023-02-01T11:18:35;10.20;;;5.70;;
59273;SDS011;45044;41.572;24.730;2023-02-01T11:21:03;8.53;;;4.00;;
59273;SDS011;45044;41.572;24.730;2023-02-01T11:23:31;9.73;;;4.63;;
59273;SDS011;45044;41.572;24.730;2023-02-01T11:26:00;4.70;;;2.60;;
59273;SDS011;45044;41.572;24.730;2023-02-01T11:28:34;12.00;;;8.55;;
59273;SDS011;45044;41.572;24.730;2023-02-01T11:31:07;21.47;;;12.00;;
59273;SDS011;45044;41.572;24.730;2023-02-01T11:33:37;19.47;;;13.13;;
59273;SDS011;45044;41.572;24.730;2023-02-01T11:36:16;13.43;;;6.90;;
59273;SDS011;45044;41.572;24.730;2023-02-01T11:39:07;14.03;;;9.03;;
59273;SDS011;45044;41.572;24.730;2023-02-01T11:41:42;26.25;;;14.82;;
59273;SDS011;45044;41.572;24.730;2023-02-01T11:44:22;5.13;;;1.90;;
59273;SDS011;45044;41.572;24.730;2023-02-01T11:49:46;15.00;;;7.83;;
59273;SDS011;45044;41.572;24.730;2023-02-01T11:52:28;15.33;;;8.07;;
59273;SDS011;45044;41.572;24.730;2023-02-01T12:22:47;7.30;;;4.30;;
59273;SDS011;45044;41.572;24.730;2023-02-01T12:31:01;11.03;;;6.00;;
59273;SDS011;45044;41.572;24.730;2023-02-01T12:39:17;15.47;;;10.53;;
59273;SDS011;45044;41.572;24.730;2023-02-01T12:47:01;42.07;;;21.90;;
59273;SDS011;45044;41.572;24.730;2023-02-01T12:49:41;12.90;;;7.77;;
59273;SDS011;45044;41.572;24.730;2023-02-01T12:52:19;11.13;;;6.63;;
59273;SDS011;45044;41.572;24.730;2023-02-01T12:55:03;6.63;;;3.13;;
59273;SDS011;45044;41.572;24.730;2023-02-01T12:57:37;15.17;;;9.10;;
59273;SDS011;45044;41.572;24.730;2023-02-01T13:00:30;21.80;;;13.83;;
59273;SDS011;45044;41.572;24.730;2023-02-01T13:06:16;10.80;;;5.70;;
59273;SDS011;45044;41.572;24.730;2023-02-01T13:08:39;6.80;;;3.60;;
59273;SDS011;45044;41.572;24.730;2023-02-01T13:11:20;11.73;;;6.67;;
59273;SDS011;45044;41.572;24.730;2023-02-01T13:16:57;11.67;;;7.23;;
59273;SDS011;45044;41.572;24.730;2023-02-01T13:22:19;5.60;;;2.50;;
59273;SDS011;45044;41.572;24.730;2023-02-01T13:27:26;12.50;;;7.43;;
59273;SDS011;45044;41.572;24.730;2023-02-01T13:32:39;42.57;;;22.03;;
59273;SDS011;45044;41.572;24.730;2023-02-01T13:36:05;32.73;;;15.43;;
59273;SDS011;45044;41.572;24.730;2023-02-01T13:41:15;28.80;;;18.10;;
59273;SDS011;45044;41.572;24.730;2023-02-01T13:44:17;13.50;;;7.93;;
59273;SDS011;45044;41.572;24.730;2023-02-01T13:49:25;65.40;;;31.33;;
59273;SDS011;45044;41.572;24.730;2023-02-01T13:51:56;14.40;;;8.50;;
59273;SDS011;45044;41.572;24.730;2023-02-01T13:54:31;7.77;;;4.77;;
59273;SDS011;45044;41.572;24.730;2023-02-01T13:57:03;11.10;;;6.80;;
59273;SDS011;45044;41.572;24.730;2023-02-01T14:05:04;54.87;;;35.73;;
59273;SDS011;45044;41.572;24.730;2023-02-01T14:07:34;26.77;;;16.40;;
59273;SDS011;45044;41.572;24.730;2023-02-01T14:28:54;30.83;;;18.63;;
59273;SDS011;45044;41.572;24.730;2023-02-01T14:31:28;33.60;;;19.55;;
59273;SDS011;45044;41.572;24.730;2023-02-01T14:33:58;37.80;;;23.50;;
59273;SDS011;45044;41.572;24.730;2023-02-01T14:36:26;42.43;;;25.13;;
59273;SDS011;45044;41.572;24.730;2023-02-01T14:39:31;17.47;;;10.83;;
59273;SDS011;45044;41.572;24.730;2023-02-01T14:42:00;28.27;;;18.40;;
59273;SDS011;45044;41.572;24.730;2023-02-01T14:44:32;69.87;;;37.83;;
59273;SDS011;45044;41.572;24.730;2023-02-01T14:47:25;100.70;;;53.63;;
59273;SDS011;45044;41.572;24.730;2023-02-01T14:49:56;46.80;;;30.20;;
59273;SDS011;45044;41.572;24.730;2023-02-01T14:52:39;51.37;;;28.73;;
59273;SDS011;45044;41.572;24.730;2023-02-01T15:00:52;83.30;;;46.73;;
59273;SDS011;45044;41.572;24.730;2023-02-01T15:06:25;55.30;;;34.43;;
59273;SDS011;45044;41.572;24.730;2023-02-01T15:08:57;347.83;;;212.77;;
59273;SDS011;45044;41.572;24.730;2023-02-01T15:11:31;98.23;;;55.60;;
59273;SDS011;45044;41.572;24.730;2023-02-01T15:13:58;75.90;;;47.57;;
59273;SDS011;45044;41.572;24.730;2023-02-01T15:16:26;94.33;;;55.47;;
59273;SDS011;45044;41.572;24.730;2023-02-01T15:19:06;104.37;;;61.90;;
59273;SDS011;45044;41.572;24.730;2023-02-01T15:21:46;109.57;;;66.20;;
59273;SDS011;45044;41.572;24.730;2023-02-01T15:24:18;90.83;;;58.17;;
59273;SDS011;45044;41.572;24.730;2023-02-01T15:26:47;86.93;;;54.97;;
59273;SDS011;45044;41.572;24.730;2023-02-01T15:29:15;85.73;;;53.97;;
59273;SDS011;45044;41.572;24.730;2023-02-01T15:31:47;82.93;;;52.23;;
59273;SDS011;45044;41.572;24.730;2023-02-01T15:34:19;117.80;;;65.33;;
59273;SDS011;45044;41.572;24.730;2023-02-01T15:36:46;126.00;;;74.87;;
59273;SDS011;45044;41.572;24.730;2023-02-01T15:39:28;242.60;;;126.03;;
59273;SDS011;45044;41.572;24.730;2023-02-01T15:41:59;154.03;;;90.83;;
59273;SDS011;45044;41.572;24.730;2023-02-01T15:44:41;113.93;;;68.73;;
59273;SDS011;45044;41.572;24.730;2023-02-01T15:47:16;110.07;;;64.93;;
59273;SDS011;45044;41.572;24.730;2023-02-01T15:49:50;105.67;;;65.90;;
59273;SDS011;45044;41.572;24.730;2023-02-01T15:52:39;108.07;;;65.97;;
59273;SDS011;45044;41.572;24.730;2023-02-01T15:57:46;124.13;;;72.53;;
59273;SDS011;45044;41.572;24.730;2023-02-01T16:00:30;233.33;;;125.83;;
59273;SDS011;45044;41.572;24.730;2023-02-01T16:03:03;204.23;;;125.37;;
59273;SDS011;45044;41.572;24.730;2023-02-01T16:05:54;192.40;;;118.87;;
59273;SDS011;45044;41.572;24.730;2023-02-01T16:08:27;207.67;;;132.93;;
59273;SDS011;45044;41.572;24.730;2023-02-01T16:13:54;185.27;;;115.37;;
59273;SDS011;45044;41.572;24.730;2023-02-01T16:16:21;191.57;;;122.27;;
59273;SDS011;45044;41.572;24.730;2023-02-01T16:18:48;187.87;;;115.13;;
59273;SDS011;45044;41.572;24.730;2023-02-01T16:21:14;217.17;;;134.27;;
59273;SDS011;45044;41.572;24.730;2023-02-01T16:23:41;249.90;;;147.40;;
59273;SDS011;45044;41.572;24.730;2023-02-01T16:26:08;219.47;;;134.80;;
59273;SDS011;45044;41.572;24.730;2023-02-01T16:28:35;216.87;;;130.03;;
59273;SDS011;45044;41.572;24.730;2023-02-01T16:31:02;378.10;;;204.60;;
59273;SDS011;45044;41.572;24.730;2023-02-01T16:33:29;265.67;;;150.70;;
59273;SDS011;45044;41.572;24.730;2023-02-01T16:35:56;280.67;;;173.63;;
59273;SDS011;45044;41.572;24.730;2023-02-01T16:38:26;217.90;;;133.27;;
59273;SDS011;45044;41.572;24.730;2023-02-01T16:40:53;216.20;;;133.90;;
59273;SDS011;45044;41.572;24.730;2023-02-01T16:43:21;218.20;;;131.90;;
59273;SDS011;45044;41.572;24.730;2023-02-01T16:45:50;261.30;;;148.53;;
59273;SDS011;45044;41.572;24.730;2023-02-01T16:48:26;216.53;;;137.80;;
59273;SDS011;45044;41.572;24.730;2023-02-01T16:50:56;233.73;;;145.80;;
59273;SDS011;45044;41.572;24.730;2023-02-01T16:53:25;334.10;;;213.03;;
59273;SDS011;45044;41.572;24.730;2023-02-01T16:55:54;256.27;;;151.47;;
59273;SDS011;45044;41.572;24.730;2023-02-01T16:58:24;189.13;;;118.50;;
59273;SDS011;45044;41.572;24.730;2023-02-01T17:00:52;249.77;;;148.20;;
59273;SDS011;45044;41.572;24.730;2023-02-01T17:03:20;277.47;;;150.73;;
59273;SDS011;45044;41.572;24.730;2023-02-01T17:05:52;275.30;;;150.43;;
59273;SDS011;45044;41.572;24.730;2023-02-01T17:08:31;242.33;;;134.13;;
59273;SDS011;45044;41.572;24.730;2023-02-01T17:11:02;281.90;;;155.13;;
59273;SDS011;45044;41.572;24.730;2023-02-01T17:13:30;308.97;;;175.20;;
59273;SDS011;45044;41.572;24.730;2023-02-01T17:15:58;294.10;;;168.90;;
59273;SDS011;45044;41.572;24.730;2023-02-01T17:18:28;312.10;;;184.53;;
59273;SDS011;45044;41.572;24.730;2023-02-01T17:20:58;283.03;;;158.37;;
59273;SDS011;45044;41.572;24.730;2023-02-01T17:23:26;276.73;;;158.63;;
59273;SDS011;45044;41.572;24.730;2023-02-01T17:25:54;269.80;;;158.43;;
59273;SDS011;45044;41.572;24.730;2023-02-01T17:28:22;261.93;;;154.60;;
59273;SDS011;45044;41.572;24.730;2023-02-01T17:30:49;267.63;;;161.03;;